Providence, Rhode Island
Traffic Map
Current Weather Conditions
Providence, Rhode Island
Few Clouds
Few Clouds
47°
Feels Like: 43°
Wind Chill: 43° Ceiling: Unl
Heat Index: 47° Visibility: 10mi
Dew Point: 34° Wind: 8mph
Humidity: 61% Direction: 180° (S)
Pressure: 30.27in Gusts: 0mph
Raw Report DataKPVD 302351Z 18007KT 10SM FEW220 FEW250 FEW300 08/01 A3027 RMK AO2 SLP249 T00830011 10161 20083 53014
Traffic Incident Summary
Active as of:
Severity:
Category:
InformationThere was an issue retrieving the traffic information for this location. Please try a different location or try again shortly.
Advertisements
Track Severe Weather on mobile